createdAt,value
2023-05-10T00:00:00.722Z,5.20
2023-05-10T00:05:03.878Z,5.70
2023-05-10T00:10:07.571Z,5.40
2023-05-10T00:15:12.173Z,5.30
2023-05-10T00:20:15.172Z,4.30
2023-05-10T00:25:18.222Z,5.00
2023-05-10T00:30:21.309Z,4.60
2023-05-10T00:35:24.414Z,4.30
2023-05-10T00:40:27.637Z,4.90
2023-05-10T00:45:33.891Z,5.50
2023-05-10T00:50:36.938Z,5.50
2023-05-10T00:55:39.897Z,5.50
2023-05-10T01:00:44.844Z,5.20
2023-05-10T01:05:47.887Z,5.00
2023-05-10T01:10:51.049Z,4.00
2023-05-10T01:15:54.371Z,4.10
2023-05-10T01:21:33.085Z,3.50
2023-05-10T01:27:15.999Z,4.10
2023-05-10T01:33:02.441Z,3.70
2023-05-10T01:38:28.885Z,3.50
2023-05-10T01:43:49.380Z,3.80
2023-05-10T01:48:56.102Z,3.60
2023-05-10T01:54:05.723Z,3.90
2023-05-10T01:59:16.471Z,4.20
2023-05-10T02:04:23.108Z,4.20
2023-05-10T02:09:30.980Z,3.80
2023-05-10T02:14:37.744Z,3.70
2023-05-10T02:19:43.122Z,4.30
2023-05-10T02:24:48.622Z,3.90
2023-05-10T02:29:53.474Z,3.60
2023-05-10T02:34:58.531Z,3.80
2023-05-10T02:40:04.687Z,4.10
2023-05-10T02:45:20.723Z,4.00
2023-05-10T02:50:30.253Z,4.30
2023-05-10T02:55:40.071Z,4.20
2023-05-10T03:00:42.928Z,3.80
2023-05-10T03:05:46.975Z,4.30
2023-05-10T03:11:09.426Z,3.70
2023-05-10T03:16:52.487Z,3.30
2023-05-10T03:22:04.724Z,4.50
2023-05-10T03:27:09.359Z,4.00
2023-05-10T03:32:12.389Z,3.60
2023-05-10T03:37:15.364Z,3.60
2023-05-10T03:42:18.936Z,3.60
2023-05-10T03:47:21.811Z,4.70
2023-05-10T03:52:24.778Z,3.90
2023-05-10T03:57:27.615Z,3.70
2023-05-10T04:02:31.454Z,3.90
2023-05-10T04:07:34.384Z,4.10
2023-05-10T04:12:37.336Z,4.40
2023-05-10T04:17:40.233Z,5.40
2023-05-10T04:22:43.189Z,4.60
2023-05-10T04:27:46.011Z,4.50
2023-05-10T04:32:49.091Z,3.90
2023-05-10T04:37:52.032Z,3.30
2023-05-10T04:42:55.518Z,4.10
2023-05-10T04:47:58.402Z,3.60
2023-05-10T04:53:01.529Z,3.60
2023-05-10T04:58:04.352Z,3.80
2023-05-10T05:10:09.896Z,3.40
2023-05-10T05:15:12.821Z,3.70
2023-05-10T05:20:15.933Z,3.20
2023-05-10T05:25:19.310Z,3.70
2023-05-10T05:30:22.195Z,3.20
2023-05-10T05:35:25.464Z,4.00
2023-05-10T05:40:28.324Z,3.10
2023-05-10T05:45:31.150Z,2.80
2023-05-10T05:50:34.044Z,3.10
2023-05-10T05:55:36.936Z,3.00
2023-05-10T06:00:39.892Z,2.90
2023-05-10T06:05:43.111Z,2.80
2023-05-10T06:10:46.719Z,2.60
2023-05-10T06:15:49.546Z,2.30
2023-05-10T06:20:52.837Z,3.40
2023-05-10T06:25:55.884Z,2.30
2023-05-10T06:30:58.894Z,2.50
2023-05-10T06:36:01.914Z,2.80
2023-05-10T06:41:04.860Z,2.90
2023-05-10T06:46:08.436Z,2.80
2023-05-10T06:51:11.615Z,2.70
2023-05-10T06:56:15.177Z,2.00
2023-05-10T07:01:18.168Z,2.10
2023-05-10T07:06:32.389Z,2.40
2023-05-10T07:11:37.311Z,2.00
2023-05-10T07:16:40.312Z,2.00
2023-05-10T07:21:44.430Z,2.10
2023-05-10T07:26:47.283Z,1.80
2023-05-10T07:31:50.916Z,1.80
2023-05-10T07:36:54.182Z,1.70
2023-05-10T07:41:57.564Z,2.40
2023-05-10T07:47:00.728Z,2.20
2023-05-10T07:52:05.579Z,2.00
2023-05-10T07:57:10.549Z,1.70
2023-05-10T08:02:13.562Z,1.80
2023-05-10T08:07:16.640Z,1.90
2023-05-10T08:12:19.848Z,1.70
2023-05-10T08:17:24.686Z,2.20
2023-05-10T08:22:29.144Z,1.80
2023-05-10T08:27:32.739Z,1.60
2023-05-10T08:32:36.446Z,1.60
2023-05-10T08:37:40.619Z,1.90
2023-05-10T08:42:56.513Z,1.70
2023-05-10T08:48:03.202Z,1.40
2023-05-10T08:53:11.952Z,1.80
2023-05-10T08:58:15.574Z,2.00
2023-05-10T09:03:19.164Z,2.00
2023-05-10T09:08:26.431Z,1.70
2023-05-10T09:13:29.839Z,1.90
2023-05-10T09:18:33.145Z,1.90
2023-05-10T09:23:36.177Z,2.10
2023-05-10T09:28:57.734Z,2.20
2023-05-10T09:34:02.493Z,1.70
2023-05-10T09:39:05.799Z,2.50
2023-05-10T09:44:10.388Z,1.60
2023-05-10T09:49:16.023Z,1.70
2023-05-10T09:54:38.734Z,1.90
2023-05-10T09:59:52.313Z,2.00
2023-05-10T10:05:09.883Z,1.70
2023-05-10T10:10:42.472Z,2.20
2023-05-10T10:15:52.958Z,2.40
2023-05-10T10:21:14.086Z,1.90
2023-05-10T10:26:35.301Z,2.20
2023-05-10T10:32:24.931Z,1.80
2023-05-10T10:43:29.573Z,1.80
2023-05-10T10:49:18.670Z,1.90
2023-05-10T10:54:29.518Z,1.70
2023-05-10T10:59:32.718Z,2.20
2023-05-10T11:04:47.687Z,2.00
2023-05-10T11:09:50.933Z,1.60
2023-05-10T11:14:59.074Z,1.80
2023-05-10T11:20:16.253Z,1.70
2023-05-10T11:25:21.446Z,1.90
2023-05-10T11:30:25.688Z,1.60
2023-05-10T11:35:29.273Z,1.70
2023-05-10T11:40:32.153Z,2.20
2023-05-10T11:45:36.158Z,1.70
2023-05-10T11:50:39.322Z,1.70
2023-05-10T11:55:42.333Z,1.80
2023-05-10T12:00:46.479Z,1.60
2023-05-10T12:05:49.674Z,1.50
2023-05-10T12:10:54.540Z,2.30
2023-05-10T12:16:00.892Z,1.60
2023-05-10T12:21:05.465Z,1.10
2023-05-10T12:26:11.586Z,1.80
2023-05-10T12:31:14.889Z,1.90
2023-05-10T12:36:24.194Z,1.50
2023-05-10T12:41:27.244Z,1.80
2023-05-10T12:46:30.648Z,1.50
2023-05-10T12:51:33.831Z,1.70
2023-05-10T12:56:38.167Z,1.70
2023-05-10T13:01:42.557Z,6.30
2023-05-10T13:06:47.425Z,1.80
2023-05-10T13:11:50.822Z,1.50
2023-05-10T13:16:54.936Z,1.30
2023-05-10T13:21:58.259Z,1.80
2023-05-10T13:27:01.745Z,1.70
2023-05-10T13:32:05.297Z,1.60
2023-05-10T13:37:08.359Z,1.80
2023-05-10T13:42:12.119Z,1.30
2023-05-10T13:47:18.129Z,1.40
2023-05-10T13:52:21.269Z,1.40
2023-05-10T13:57:24.977Z,1.60
2023-05-10T14:02:28.703Z,1.50
2023-05-10T14:07:31.892Z,1.60
2023-05-10T14:12:35.224Z,1.40
2023-05-10T14:17:38.673Z,1.30
2023-05-10T14:22:41.986Z,1.20
2023-05-10T14:27:45.293Z,1.50
2023-05-10T14:32:48.477Z,1.40
2023-05-10T14:37:52.502Z,1.40
2023-05-10T14:42:57.824Z,2.00
2023-05-10T14:48:02.134Z,1.40
2023-05-10T14:53:05.105Z,1.20
2023-05-10T14:58:08.010Z,1.80
2023-05-10T15:03:11.107Z,1.80
2023-05-10T15:08:14.349Z,1.50
2023-05-10T15:13:17.561Z,1.70
2023-05-10T15:18:20.591Z,1.60
2023-05-10T15:23:23.965Z,1.60
2023-05-10T15:28:26.851Z,1.40
2023-05-10T15:33:29.777Z,1.70
2023-05-10T15:38:32.626Z,1.50
2023-05-10T15:43:35.458Z,1.60
2023-05-10T15:48:40.198Z,1.90
2023-05-10T15:53:56.367Z,1.40
2023-05-10T15:59:01.863Z,1.70
2023-05-10T16:04:04.852Z,1.40
2023-05-10T16:09:08.723Z,1.80
2023-05-10T16:14:11.720Z,2.20
2023-05-10T16:19:16.042Z,1.60
2023-05-10T16:24:19.065Z,1.60
2023-05-10T16:29:22.013Z,1.70
2023-05-10T16:34:25.452Z,2.10
2023-05-10T16:39:28.375Z,1.60
2023-05-10T16:44:31.460Z,1.90
2023-05-10T16:54:39.613Z,1.70
2023-05-10T16:59:42.727Z,1.60
2023-05-10T17:04:46.237Z,1.40
2023-05-10T17:09:49.172Z,1.60
2023-05-10T17:14:55.327Z,1.40
2023-05-10T17:19:58.810Z,1.50
2023-05-10T17:25:01.869Z,1.20
2023-05-10T17:30:06.048Z,1.50
2023-05-10T17:35:09.174Z,4.80
2023-05-10T17:40:12.807Z,2.90
2023-05-10T17:45:16.729Z,1.90
2023-05-10T17:50:20.003Z,2.10
2023-05-10T17:55:22.835Z,1.90
2023-05-10T18:00:25.969Z,2.20
2023-05-10T18:05:28.960Z,1.80
2023-05-10T18:10:32.424Z,1.70
2023-05-10T18:15:35.477Z,2.90
2023-05-10T18:20:38.402Z,3.40
2023-05-10T18:25:41.349Z,6.50
2023-05-10T18:30:44.309Z,6.00
2023-05-10T18:35:47.453Z,4.40
2023-05-10T18:40:51.179Z,12.90
2023-05-10T18:45:54.401Z,13.90
2023-05-10T18:50:57.300Z,22.70
2023-05-10T18:56:00.263Z,24.50
2023-05-10T19:01:03.337Z,18.00
2023-05-10T19:06:06.428Z,30.80
2023-05-10T19:11:09.362Z,30.50
2023-05-10T19:16:17.076Z,22.20
2023-05-10T19:21:21.378Z,17.40
2023-05-10T19:26:24.463Z,8.60
2023-05-10T19:31:27.850Z,6.80
2023-05-10T19:36:33.272Z,3.60
2023-05-10T19:41:36.211Z,2.80
2023-05-10T19:46:39.178Z,3.10
2023-05-10T19:51:42.179Z,3.10
2023-05-10T19:56:44.993Z,2.60
2023-05-10T20:01:47.835Z,3.10
2023-05-10T20:06:50.719Z,2.90
2023-05-10T20:11:53.670Z,3.40
2023-05-10T20:16:56.818Z,5.90
2023-05-10T20:21:59.927Z,6.10
2023-05-10T20:27:04.609Z,5.90
2023-05-10T20:32:07.525Z,5.60
2023-05-10T20:37:10.403Z,7.80
2023-05-10T20:42:13.233Z,6.90
2023-05-10T20:47:16.987Z,5.20
2023-05-10T20:52:20.183Z,9.40
2023-05-10T20:57:24.846Z,5.90
2023-05-10T21:02:27.834Z,6.00
2023-05-10T21:07:32.890Z,6.80
2023-05-10T21:12:35.827Z,13.10
2023-05-10T21:17:38.656Z,9.00
2023-05-10T21:22:41.534Z,5.80
2023-05-10T21:27:44.636Z,8.80
2023-05-10T21:32:47.640Z,7.70
2023-05-10T21:37:50.461Z,6.70
2023-05-10T21:42:53.375Z,5.70
2023-05-10T21:47:56.486Z,5.70
2023-05-10T21:52:59.768Z,6.60
2023-05-10T21:58:02.635Z,6.00
2023-05-10T22:03:05.864Z,4.80
2023-05-10T22:08:08.978Z,3.70
2023-05-10T22:13:11.803Z,4.20
2023-05-10T22:18:14.678Z,3.90
2023-05-10T22:23:17.487Z,3.40
2023-05-10T22:28:20.462Z,3.30
2023-05-10T22:33:23.288Z,3.40
2023-05-10T22:38:26.238Z,4.10
2023-05-10T22:43:29.157Z,3.70
2023-05-10T22:48:34.594Z,3.40
2023-05-10T22:53:37.566Z,4.50
2023-05-10T22:58:40.584Z,4.10
2023-05-10T23:03:43.443Z,4.10
2023-05-10T23:08:46.223Z,4.30
2023-05-10T23:13:49.288Z,4.70
2023-05-10T23:18:52.168Z,4.30
2023-05-10T23:23:55.061Z,4.20
2023-05-10T23:28:57.879Z,4.40
2023-05-10T23:34:00.699Z,3.90
2023-05-10T23:39:03.627Z,4.80
2023-05-10T23:44:06.709Z,5.00
2023-05-10T23:49:09.588Z,5.20
2023-05-10T23:54:12.472Z,3.10
2023-05-10T23:59:15.498Z,2.80
